Time;durP1;ratioP1;P1;durP2;ratioP2;P2;SDS_P1;SDS_P2;PMS_P1;PMS_P2;Temp;Humidity;BMP_temperature;BMP_pressure;BME280_temperature;BME280_humidity;BME280_pressure;Samples;Min_cycle;Max_cycle;Signal;HPM_P1;HPM_P2
2023/01/04 00:01:22;;;;;;;10.07;9.18;;;;;;;9.52;70.11;95871.72;5096116;28;20197;-71
2023/01/04 00:03:50;;;;;;;10.13;9.27;;;;;;;9.54;70.15;95874.13;5094802;28;20208;-71
2023/01/04 00:06:18;;;;;;;10.05;9.15;;;;;;;9.55;70.15;95878.47;5095121;28;20196;-71
2023/01/04 00:08:45;;;;;;;9.77;8.98;;;;;;;9.56;69.87;95875.41;5094579;28;20207;-71
2023/01/04 00:11:13;;;;;;;9.35;8.55;;;;;;;9.56;69.82;95874.63;5094696;28;20207;-71
2023/01/04 00:13:40;;;;;;;9.65;8.70;;;;;;;9.56;69.67;95875.41;5095953;28;20192;-71
2023/01/04 00:16:11;;;;;;;9.32;8.63;;;;;;;9.57;69.61;95870.72;5095040;28;20213;-71
2023/01/04 00:18:37;;;;;;;9.50;8.70;;;;;;;9.57;69.54;95876.22;5094900;28;20207;-71
2023/01/04 00:21:11;;;;;;;8.80;8.00;;;;;;;9.55;69.28;95876.56;5095593;28;20203;-71
2023/01/04 00:23:38;;;;;;;8.55;7.75;;;;;;;9.56;69.25;95875.41;5095444;28;20219;-71
2023/01/04 00:26:10;;;;;;;8.70;7.97;;;;;;;9.56;69.11;95866.34;5095660;28;20192;-71
2023/01/04 00:28:37;;;;;;;8.55;7.85;;;;;;;9.56;69.24;95875.41;5095697;28;20195;-71
2023/01/04 00:31:05;;;;;;;9.18;8.27;;;;;;;9.58;68.91;95883.34;5094471;28;20193;-71
2023/01/04 00:33:31;;;;;;;8.95;8.15;;;;;;;9.57;68.95;95879.78;5094981;28;20192;-71
2023/01/04 00:36:03;;;;;;;8.20;7.57;;;;;;;9.58;68.97;95888.84;5095083;28;20542;-71
2023/01/04 00:38:32;;;;;;;8.80;8.00;;;;;;;9.57;68.84;95895.50;5095038;28;20578;-71
2023/01/04 00:40:59;;;;;;;9.25;8.45;;;;;;;9.59;68.57;95884.97;5094377;28;20231;-72
2023/01/04 00:43:26;;;;;;;8.55;7.80;;;;;;;9.59;68.50;95883.03;5095327;28;20188;-71
2023/01/04 00:45:52;;;;;;;8.73;8.02;;;;;;;9.59;68.70;95882.22;5095072;28;20192;-71
2023/01/04 00:48:19;;;;;;;9.05;8.35;;;;;;;9.57;68.51;95877.03;5094305;28;20200;-71
2023/01/04 00:50:46;;;;;;;8.93;8.05;;;;;;;9.53;68.47;95870.56;5094892;28;20681;-71
2023/01/04 00:53:14;;;;;;;8.48;7.80;;;;;;;9.51;68.75;95880.28;5095248;28;20525;-71
2023/01/04 00:55:42;;;;;;;8.95;8.15;;;;;;;9.46;68.69;95874.94;5094199;28;20542;-71
2023/01/04 00:58:09;;;;;;;8.93;8.23;;;;;;;9.45;68.92;95884.34;5094122;28;20636;-71
2023/01/04 01:00:36;;;;;;;9.10;8.30;;;;;;;9.44;68.66;95878.03;5094368;28;20196;-71
2023/01/04 01:03:03;;;;;;;8.70;8.00;;;;;;;9.43;68.54;95886.59;5095341;28;20196;-71
2023/01/04 01:05:30;;;;;;;8.63;7.90;;;;;;;9.41;68.67;95881.44;5098217;28;20212;-71
2023/01/04 01:07:57;;;;;;;9.00;8.20;;;;;;;9.44;68.56;95893.72;5099404;28;20184;-71
2023/01/04 01:10:24;;;;;;;9.43;8.40;;;;;;;9.45;68.53;95887.09;5097867;28;20203;-71
2023/01/04 01:12:52;;;;;;;8.45;7.75;;;;;;;9.47;68.54;95888.38;5097833;28;20192;-71
2023/01/04 01:15:19;;;;;;;9.65;8.75;;;;;;;9.46;68.42;95892.28;5099235;28;20185;-71
2023/01/04 01:17:45;;;;;;;9.07;8.35;;;;;;;9.46;68.43;95889.53;5099139;28;20192;-71
2023/01/04 01:20:12;;;;;;;9.07;8.27;;;;;;;9.44;68.37;95888.22;5098134;28;20188;-71
2023/01/04 01:22:39;;;;;;;8.50;7.80;;;;;;;9.44;68.50;95896.47;5098331;28;20199;-71
2023/01/04 01:25:06;;;;;;;9.07;8.27;;;;;;;9.43;68.40;95889.38;5097966;28;20682;-71
2023/01/04 01:27:34;;;;;;;9.20;8.40;;;;;;;9.41;68.58;95895.22;5098243;28;20196;-71
2023/01/04 01:30:02;;;;;;;9.80;8.30;;;;;;;9.40;68.57;95896.31;5098895;28;20189;-71
2023/01/04 01:32:29;;;;;;;9.10;8.35;;;;;;;9.43;68.58;95894.88;5098365;28;20193;-71
2023/01/04 01:34:56;;;;;;;9.15;8.45;;;;;;;9.45;68.42;95900.88;5097751;28;20312;-71
2023/01/04 01:37:23;;;;;;;9.93;9.10;;;;;;;9.44;68.65;95891.81;5097667;28;20200;-71
2023/01/04 01:39:49;;;;;;;9.27;8.48;;;;;;;9.47;68.32;95896.63;5097774;28;20207;-71
2023/01/04 01:42:19;;;;;;;9.52;8.63;;;;;;;9.45;68.74;95887.91;5098404;28;20232;-71
2023/01/04 01:44:59;;;;;;;9.25;8.45;;;;;;;9.46;68.48;95891.47;5098375;28;20655;-71
2023/01/04 01:47:35;;;;;;;9.10;8.32;;;;;;;9.47;68.62;95898.59;5098320;28;20632;-71
2023/01/04 01:50:03;;;;;;;9.00;8.30;;;;;;;9.46;68.41;95892.28;5098559;28;20191;-71
2023/01/04 01:52:32;;;;;;;9.40;8.50;;;;;;;9.46;68.35;95891.47;5097515;28;20200;-71
2023/01/04 01:55:00;;;;;;;10.05;9.18;;;;;;;9.46;68.59;95886.78;5097335;28;20200;-71
2023/01/04 01:57:29;;;;;;;9.98;9.18;;;;;;;9.44;68.64;95885.47;5098395;28;20612;-71
2023/01/04 01:59:58;;;;;;;9.30;8.50;;;;;;;9.41;68.71;95886.94;5097933;28;20253;-71
2023/01/04 02:02:25;;;;;;;9.32;8.52;;;;;;;9.38;68.53;95880.13;5098363;28;20200;-71
2023/01/04 02:04:53;;;;;;;9.82;8.93;;;;;;;9.34;68.67;95879.16;5096667;28;20212;-71
2023/01/04 02:07:22;;;;;;;10.77;9.57;;;;;;;9.33;68.78;95879.47;5096841;28;20197;-71
2023/01/04 02:09:49;;;;;;;10.18;9.32;;;;;;;9.33;68.84;95876.72;5097226;28;20196;-71
2023/01/04 02:12:16;;;;;;;9.82;8.93;;;;;;;9.30;68.84;95874.66;5098097;28;20184;-71
2023/01/04 02:14:45;;;;;;;9.57;8.80;;;;;;;9.29;68.75;95873.81;5097043;28;20188;-71
2023/01/04 02:17:16;;;;;;;9.73;8.82;;;;;;;9.28;68.58;95885.16;5096888;28;20197;-71
2023/01/04 02:19:57;;;;;;;10.40;9.43;;;;;;;9.26;68.89;95881.91;5097498;28;20497;-71
2023/01/04 02:22:44;;;;;;;10.32;9.32;;;;;;;9.25;68.85;95883.06;5096868;28;20538;-71
2023/01/04 02:25:28;;;;;;;10.25;9.35;;;;;;;9.24;68.82;95881.44;5083419;28;20271;-71
2023/01/04 02:27:56;;;;;;;11.35;10.25;;;;;;;9.20;69.15;95878.53;5097010;28;20204;-71
2023/01/04 02:31:05;;;;;;;10.10;9.30;;;;;;;9.15;69.33;95885.03;5097325;28;20181;-71
2023/01/04 02:33:42;;;;;;;10.32;9.43;;;;;;;9.18;69.39;95874.47;5046101;28;20210;-72
2023/01/04 02:36:13;;;;;;;10.10;9.25;;;;;;;9.18;69.39;95875.28;5097538;28;20185;-71
2023/01/04 02:38:49;;;;;;;10.20;9.20;;;;;;;9.17;69.33;95870.91;5096773;28;20204;-71
2023/01/04 02:41:22;;;;;;;10.23;9.32;;;;;;;9.13;69.25;95870.75;5097741;28;20239;-71
2023/01/04 02:46:42;;;;;;;11.70;10.55;;;;;;;9.08;69.59;95872.88;5097009;28;20180;-71
2023/01/04 02:51:54;;;;;;;13.55;12.25;;;;;;;9.04;69.69;95878.22;5097088;28;20192;-71
2023/01/04 02:54:24;;;;;;;13.20;11.98;;;;;;;8.99;69.86;95881.13;5096405;28;20513;-71
2023/01/04 02:57:00;;;;;;;11.10;10.10;;;;;;;9.03;70.10;95881.28;5096681;28;20197;-71
2023/01/04 02:59:50;;;;;;;11.65;10.43;;;;;;;9.03;69.94;95868.31;5096738;28;20681;-71
2023/01/04 03:08:08;;;;;;;10.88;9.95;;;;;;;9.02;70.25;95874.97;5096155;28;20196;-71
2023/01/04 03:10:38;;;;;;;11.20;10.20;;;;;;;9.03;70.50;95873.03;5096822;28;20269;-71
2023/01/04 03:13:08;;;;;;;10.65;9.65;;;;;;;9.03;70.20;95860.06;5096754;28;20177;-71
2023/01/04 03:15:37;;;;;;;10.90;9.93;;;;;;;9.03;70.36;95868.31;5096807;28;20245;-71
2023/01/04 03:18:09;;;;;;;11.60;10.60;;;;;;;9.06;70.27;95869.63;5095921;28;20188;-71
2023/01/04 03:20:37;;;;;;;11.05;10.05;;;;;;;9.05;70.21;95868.00;5095826;28;20235;-71
2023/01/04 03:37:15;;;;;;;11.55;10.55;;;;;;;8.85;70.92;95886.75;4997890;28;20225;-71
2023/01/04 03:48:30;;;;;;;12.35;11.23;;;;;;;8.82;71.11;95887.44;5095458;28;20185;-71
2023/01/04 03:51:02;;;;;;;11.77;10.65;;;;;;;8.83;71.20;95893.72;5095725;28;20624;-71
2023/01/04 03:53:33;;;;;;;11.45;10.48;;;;;;;8.82;71.10;95890.19;5095327;28;20196;-71
2023/01/04 03:56:00;;;;;;;11.40;10.30;;;;;;;8.81;70.89;95891.28;5095149;28;20192;-72
2023/01/04 03:58:27;;;;;;;12.13;10.95;;;;;;;8.84;71.05;95892.59;5095634;28;20655;-71
2023/01/04 04:01:02;;;;;;;12.73;11.52;;;;;;;8.83;70.94;95891.78;5094938;28;20215;-71
2023/01/04 04:09:00;;;;;;;12.27;11.10;;;;;;;8.82;71.13;95894.84;5095389;28;20185;-71
2023/01/04 04:11:33;;;;;;;12.23;10.93;;;;;;;8.80;71.09;95899.88;5096239;28;20216;-71
2023/01/04 04:14:00;;;;;;;11.80;10.60;;;;;;;8.75;71.23;95895.34;5094617;28;20212;-71
2023/01/04 04:16:27;;;;;;;11.65;10.55;;;;;;;8.76;71.26;95905.22;5094945;28;20196;-71
2023/01/04 04:18:54;;;;;;;11.40;10.32;;;;;;;8.74;71.30;95903.91;5095516;28;20192;-71
2023/01/04 04:21:21;;;;;;;10.98;10.02;;;;;;;8.72;71.11;95903.44;5094811;28;20196;-71
2023/01/04 04:23:48;;;;;;;11.10;10.00;;;;;;;8.67;71.22;95904.38;5096052;28;20184;-71
2023/01/04 04:26:16;;;;;;;11.25;10.15;;;;;;;8.67;71.41;95905.16;5094271;28;20664;-71
2023/01/04 04:28:43;;;;;;;11.18;10.25;;;;;;;8.63;71.32;95906.94;5095560;28;20195;-71
2023/01/04 04:31:10;;;;;;;11.25;10.15;;;;;;;8.63;71.27;95915.19;5095547;28;20188;-71
2023/01/04 04:33:37;;;;;;;11.00;10.00;;;;;;;8.60;71.54;95902.09;5095402;28;20196;-71
2023/01/04 04:36:05;;;;;;;11.10;10.10;;;;;;;8.61;71.49;95908.41;5095574;28;20199;-71
2023/01/04 04:38:31;;;;;;;11.73;10.63;;;;;;;8.62;71.49;95910.84;5094839;28;20662;-71
2023/01/04 04:43:44;;;;;;;12.02;10.90;;;;;;;8.63;71.40;95914.38;5094223;28;20556;-71
2023/01/04 04:46:11;;;;;;;12.25;11.15;;;;;;;8.61;71.32;95922.97;5094933;28;20227;-71
2023/01/04 04:48:38;;;;;;;11.88;10.77;;;;;;;8.57;71.45;95924.75;5095361;28;20195;-71
2023/01/04 04:51:06;;;;;;;11.50;10.50;;;;;;;8.57;71.80;95922.00;5093990;28;20216;-71
2023/01/04 04:53:32;;;;;;;11.63;10.52;;;;;;;8.61;71.63;95927.66;5095293;28;20184;-71
2023/01/04 04:55:59;;;;;;;12.45;11.25;;;;;;;8.61;71.81;95924.91;5094581;28;20189;-71
2023/01/04 04:58:26;;;;;;;12.88;11.68;;;;;;;8.59;71.61;95929.91;5094543;28;20200;-71
2023/01/04 05:00:54;;;;;;;12.52;11.35;;;;;;;8.59;71.76;95927.97;5094166;28;20207;-71
2023/01/04 05:03:21;;;;;;;12.70;11.50;;;;;;;8.58;71.80;95923.59;5094440;28;20199;-71
2023/01/04 05:05:47;;;;;;;12.35;11.15;;;;;;;8.57;72.09;95924.75;5094253;28;20337;-71
2023/01/04 05:08:14;;;;;;;11.95;10.85;;;;;;;8.56;72.05;95933.28;5095069;28;20597;-71
2023/01/04 05:10:41;;;;;;;11.80;10.80;;;;;;;8.53;71.86;95933.94;5094837;28;20188;-71
2023/01/04 05:13:09;;;;;;;11.63;10.52;;;;;;;8.53;72.22;95939.44;5094115;28;20253;-71
2023/01/04 05:15:39;;;;;;;12.73;11.63;;;;;;;8.54;71.96;95933.63;5094564;28;20243;-71
2023/01/04 05:18:09;;;;;;;12.25;11.02;;;;;;;8.52;72.04;95938.63;5094783;28;20565;-71
2023/01/04 05:20:36;;;;;;;11.88;10.88;;;;;;;8.52;72.11;95940.56;5094119;28;20208;-71
2023/01/04 05:23:03;;;;;;;12.27;11.18;;;;;;;8.52;71.87;95938.63;5094830;28;20203;-71
2023/01/04 05:25:30;;;;;;;11.82;10.80;;;;;;;8.51;72.09;95942.50;5095024;28;20212;-72
2023/01/04 05:27:57;;;;;;;12.27;11.25;;;;;;;8.53;71.68;95940.22;5094127;28;20201;-71
2023/01/04 05:33:09;;;;;;;12.25;11.18;;;;;;;8.55;71.74;95945.44;5094541;28;20185;-71
2023/01/04 05:35:37;;;;;;;12.00;10.90;;;;;;;8.53;71.98;95937.47;5094530;28;20181;-71
2023/01/04 05:38:03;;;;;;;12.30;11.10;;;;;;;8.52;71.69;95948.81;5094829;28;20196;-71
2023/01/04 05:40:30;;;;;;;11.38;10.20;;;;;;;8.50;71.59;95943.66;5093565;28;20228;-71
2023/01/04 05:42:57;;;;;;;11.60;10.60;;;;;;;8.52;71.93;95952.38;5094768;28;20254;-71
2023/01/04 05:45:24;;;;;;;11.05;10.05;;;;;;;8.49;71.69;95946.69;5094748;28;20213;-71
2023/01/04 05:47:52;;;;;;;11.70;10.45;;;;;;;8.49;71.70;95947.50;5094708;28;20233;-71
2023/01/04 05:50:21;;;;;;;11.70;10.73;;;;;;;8.49;71.56;95950.25;5095996;28;20184;-71
2023/01/04 05:52:48;;;;;;;10.70;9.80;;;;;;;8.51;71.66;95953.50;5097294;28;20513;-71
2023/01/04 05:55:15;;;;;;;11.63;10.63;;;;;;;8.51;71.19;95948.00;5097057;28;20189;-71
2023/01/04 05:57:42;;;;;;;11.93;10.85;;;;;;;8.48;71.41;95948.63;5098328;28;20188;-71
2023/01/04 06:00:11;;;;;;;10.85;9.85;;;;;;;8.41;71.44;95951.03;5097985;28;20196;-71
2023/01/04 06:02:37;;;;;;;10.80;9.90;;;;;;;8.42;71.43;95949.91;5097286;28;20192;-71
2023/01/04 06:05:05;;;;;;;11.10;10.20;;;;;;;8.42;71.44;95955.41;5097051;28;20224;-71
2023/01/04 06:07:33;;;;;;;11.57;10.35;;;;;;;8.43;71.31;95951.53;5097209;28;20249;-71
2023/01/04 06:10:00;;;;;;;10.90;9.80;;;;;;;8.43;71.27;95951.53;5096787;28;20208;-71
2023/01/04 06:12:26;;;;;;;10.88;9.88;;;;;;;8.44;71.21;95953.16;5097146;28;20264;-71
2023/01/04 06:14:53;;;;;;;10.82;9.82;;;;;;;8.43;71.34;95951.53;5096704;28;20204;-71
2023/01/04 06:17:20;;;;;;;10.40;9.40;;;;;;;8.42;71.12;95956.22;5097995;28;20192;-71
2023/01/04 06:19:47;;;;;;;11.23;10.10;;;;;;;8.43;71.02;95962.53;5098017;28;20181;-71
2023/01/04 06:22:14;;;;;;;11.15;10.18;;;;;;;8.46;71.03;95961.91;5097055;28;20203;-71
2023/01/04 06:24:42;;;;;;;10.48;9.57;;;;;;;8.40;71.15;95968.66;5096938;28;20236;-71
2023/01/04 06:27:09;;;;;;;11.40;10.32;;;;;;;8.40;70.98;95980.47;5096675;28;20223;-71
2023/01/04 06:29:36;;;;;;;10.90;9.95;;;;;;;8.41;71.10;95978.53;5096640;28;20192;-71
2023/01/04 06:32:03;;;;;;;11.10;10.10;;;;;;;8.39;71.07;95964.31;5096741;28;20541;-71
2023/01/04 06:34:29;;;;;;;11.00;10.02;;;;;;;8.41;71.02;95976.59;5096762;28;20203;-71
2023/01/04 06:36:56;;;;;;;10.77;9.77;;;;;;;8.44;70.95;95972.41;5096497;28;20246;-71
2023/01/04 06:39:23;;;;;;;11.65;10.45;;;;;;;8.47;70.99;95977.28;5096452;28;20271;-71
2023/01/04 06:41:51;;;;;;;11.93;10.75;;;;;;;8.44;70.94;95983.41;5096314;28;20240;-71
2023/01/04 06:44:19;;;;;;;11.60;10.60;;;;;;;8.40;70.99;95987.91;5096648;28;20195;-71
2023/01/04 06:46:46;;;;;;;11.38;10.25;;;;;;;8.39;70.82;95975.31;5096404;28;20220;-71
2023/01/04 06:49:13;;;;;;;11.65;10.65;;;;;;;8.39;71.14;95986.28;5096384;28;20204;-71
2023/01/04 06:51:40;;;;;;;12.50;11.30;;;;;;;8.41;70.83;95986.78;5096294;28;20274;-71
2023/01/04 06:54:07;;;;;;;12.02;10.93;;;;;;;8.39;70.83;95981.59;5096894;28;20633;-71
2023/01/04 06:56:33;;;;;;;11.73;10.73;;;;;;;8.40;70.88;95977.72;5096878;28;20200;-71
2023/01/04 06:59:01;;;;;;;12.07;11.00;;;;;;;8.42;70.86;95983.72;5096748;28;20215;-71
2023/01/04 07:01:28;;;;;;;11.48;10.43;;;;;;;8.44;70.63;95975.16;5095984;28;20200;-71
2023/01/04 07:03:55;;;;;;;12.77;11.45;;;;;;;8.40;70.83;95983.22;5097141;28;20185;-71
2023/01/04 07:06:22;;;;;;;12.38;11.15;;;;;;;8.42;70.53;95974.63;5096759;28;20542;-71
2023/01/04 07:08:48;;;;;;;12.43;11.18;;;;;;;8.46;70.56;95985.81;5096092;28;20199;-71
2023/01/04 07:11:15;;;;;;;13.77;12.05;;;;;;;8.46;70.41;95989.41;5095581;28;20200;-71
2023/01/04 07:13:42;;;;;;;13.15;11.75;;;;;;;8.49;70.37;95987.94;5096978;28;20189;-71
2023/01/04 07:16:10;;;;;;;15.45;12.05;;;;;;;8.50;70.21;95998.63;5096768;28;20181;-71
2023/01/04 07:18:37;;;;;;;13.05;11.50;;;;;;;8.52;70.40;95999.13;5096619;28;20184;-71
2023/01/04 07:21:04;;;;;;;10.75;9.90;;;;;;;8.48;70.35;95998.13;5096560;28;20188;-71
2023/01/04 07:23:31;;;;;;;12.68;11.52;;;;;;;8.44;70.40;96003.44;5095372;28;20253;-71
2023/01/04 07:26:01;;;;;;;12.25;11.05;;;;;;;8.49;70.54;96005.25;5095822;28;20212;-71
2023/01/04 07:31:14;;;;;;;12.35;11.00;;;;;;;8.53;70.44;96011.72;5096127;28;20180;-71
2023/01/04 07:33:40;;;;;;;12.55;11.43;;;;;;;8.55;70.53;96003.97;5095923;28;20246;-71
2023/01/04 07:36:08;;;;;;;12.18;10.98;;;;;;;8.56;70.44;96008.34;5096225;28;20199;-71
2023/01/04 07:38:35;;;;;;;11.55;10.43;;;;;;;8.57;70.44;96010.00;5095419;28;20600;-71
2023/01/04 07:41:02;;;;;;;11.98;10.88;;;;;;;8.61;70.33;96007.41;5095045;28;20243;-71
2023/01/04 07:43:28;;;;;;;11.68;10.57;;;;;;;8.61;70.25;96007.41;5095429;28;20196;-71
2023/01/04 07:45:55;;;;;;;12.15;10.98;;;;;;;8.62;70.24;96011.78;5096328;28;20204;-71
2023/01/04 07:48:23;;;;;;;11.32;10.32;;;;;;;8.62;70.02;96006.28;5095944;28;20188;-71
2023/01/04 07:50:50;;;;;;;10.55;9.55;;;;;;;8.63;70.13;96013.38;5095118;28;20200;-71
2023/01/04 07:53:17;;;;;;;11.68;10.68;;;;;;;8.61;69.93;96008.22;5095765;28;20506;-71
2023/01/04 07:55:44;;;;;;;12.13;10.98;;;;;;;8.62;70.11;96007.09;5095371;28;20193;-71
2023/01/04 07:58:11;;;;;;;12.00;10.80;;;;;;;8.63;70.15;96011.44;5095016;28;20208;-71
2023/01/04 08:00:37;;;;;;;12.13;11.02;;;;;;;8.58;69.84;96011.59;5095702;28;20185;-71
2023/01/04 08:03:04;;;;;;;12.70;11.48;;;;;;;8.57;70.10;96015.50;5095048;28;20333;-71
2023/01/04 08:05:34;;;;;;;11.05;10.05;;;;;;;8.59;69.80;96013.22;5095294;28;20232;-71
2023/01/04 08:08:01;;;;;;;10.73;9.65;;;;;;;8.61;69.57;96015.66;5095770;28;20670;-71
2023/01/04 08:10:27;;;;;;;10.45;9.55;;;;;;;8.66;69.80;96018.25;5095743;28;20180;-71
2023/01/04 08:12:54;;;;;;;10.50;9.60;;;;;;;8.68;69.28;96016.81;5094971;28;20191;-71
2023/01/04 08:15:21;;;;;;;10.75;9.82;;;;;;;8.68;69.32;96025.06;5095691;28;20246;-71
2023/01/04 08:17:48;;;;;;;11.10;10.20;;;;;;;8.63;69.46;96030.69;5095337;28;20198;-71
2023/01/04 08:20:15;;;;;;;11.65;10.60;;;;;;;8.56;69.48;96024.84;5095099;28;20188;-71
2023/01/04 08:22:43;;;;;;;11.98;10.93;;;;;;;8.58;69.79;96017.09;5095611;28;20207;-71
2023/01/04 08:25:10;;;;;;;11.30;10.27;;;;;;;8.59;69.86;96015.97;5095542;28;20192;-71
2023/01/04 08:27:37;;;;;;;12.18;10.98;;;;;;;8.62;69.71;96014.53;5095125;28;20628;-70
2023/01/04 08:30:04;;;;;;;12.40;11.05;;;;;;;8.63;69.72;96016.94;5094551;28;20204;-71
2023/01/04 08:32:31;;;;;;;11.25;10.32;;;;;;;8.65;69.61;96025.69;5095636;28;20197;-70
2023/01/04 08:34:58;;;;;;;11.43;10.43;;;;;;;8.61;69.50;96021.97;5094188;28;20197;-71
2023/01/04 08:37:25;;;;;;;11.25;10.10;;;;;;;8.58;69.68;96021.78;5095315;28;20180;-71
2023/01/04 08:39:53;;;;;;;11.02;10.02;;;;;;;8.55;69.74;96017.72;5094171;28;20200;-71
2023/01/04 08:42:20;;;;;;;11.68;10.57;;;;;;;8.53;69.91;96019.16;5094563;28;20228;-71
2023/01/04 08:44:46;;;;;;;11.85;10.75;;;;;;;8.55;69.88;96017.72;5095332;28;20181;-71
2023/01/04 08:47:13;;;;;;;11.05;10.15;;;;;;;8.56;69.74;96024.84;5094396;28;20211;-71
2023/01/04 08:49:40;;;;;;;11.23;10.25;;;;;;;8.55;69.55;96025.16;5095316;28;20208;-71
2023/01/04 08:52:08;;;;;;;11.30;10.30;;;;;;;8.52;69.51;96015.59;5095384;28;20197;-71
2023/01/04 08:54:35;;;;;;;11.40;10.40;;;;;;;8.54;69.63;96020.81;5094990;28;20188;-71
2023/01/04 08:57:03;;;;;;;10.43;9.52;;;;;;;8.51;69.45;96032.44;5094884;28;20509;-71
2023/01/04 08:59:30;;;;;;;10.93;9.95;;;;;;;8.49;69.66;96015.44;5094844;28;20204;-71
2023/01/04 09:01:57;;;;;;;10.60;9.60;;;;;;;8.44;69.29;96025.44;5095569;28;20258;-71
2023/01/04 09:04:23;;;;;;;11.15;10.15;;;;;;;8.49;69.39;96013.50;5095279;28;20177;-71
2023/01/04 09:06:50;;;;;;;11.15;9.65;;;;;;;8.49;69.40;96021.72;5094006;28;20220;-71
2023/01/04 09:09:17;;;;;;;10.70;9.57;;;;;;;8.51;69.45;96019.50;5095100;28;20189;-71
2023/01/04 09:11:44;;;;;;;11.82;10.65;;;;;;;8.55;69.27;96025.97;5094330;28;20207;-71
2023/01/04 09:14:12;;;;;;;10.88;9.70;;;;;;;8.55;69.24;96023.22;5095118;28;20201;-71
2023/01/04 09:16:40;;;;;;;11.82;10.52;;;;;;;8.58;69.42;96019.84;5093865;28;20196;-71
2023/01/04 09:19:06;;;;;;;11.80;10.65;;;;;;;8.55;69.29;96025.16;5094055;28;20200;-71
2023/01/04 09:21:34;;;;;;;11.85;10.75;;;;;;;8.56;69.37;96013.84;5094338;28;20201;-71
2023/01/04 09:24:01;;;;;;;10.52;9.63;;;;;;;8.60;68.93;96012.06;5094125;28;20612;-71
2023/01/04 09:26:28;;;;;;;10.57;9.45;;;;;;;8.55;68.33;96017.72;5097417;28;20212;-71
2023/01/04 09:28:56;;;;;;;10.30;9.35;;;;;;;8.53;68.75;96017.22;5097862;28;20196;-71
2023/01/04 09:31:26;;;;;;;10.30;9.40;;;;;;;8.51;68.64;96008.50;5098777;28;20196;-71
2023/01/04 09:33:53;;;;;;;10.38;9.55;;;;;;;8.51;68.81;96015.94;5098479;28;20196;-71
2023/01/04 09:36:20;;;;;;;10.82;9.77;;;;;;;8.51;68.31;96008.50;5098401;28;20544;-71
2023/01/04 09:38:48;;;;;;;9.80;9.00;;;;;;;8.45;68.33;96001.50;5097705;28;20629;-71
2023/01/04 09:41:21;;;;;;;10.25;9.38;;;;;;;8.44;68.41;96008.94;5097325;28;20749;-72
2023/01/04 09:43:50;;;;;;;11.13;10.13;;;;;;;8.47;68.43;96003.94;5098355;28;20188;-71
2023/01/04 09:46:22;;;;;;;10.77;9.88;;;;;;;8.45;68.50;96009.75;5098457;28;20220;-71
2023/01/04 09:48:51;;;;;;;11.45;10.40;;;;;;;8.46;68.33;96002.31;5097383;28;20628;-71
2023/01/04 09:51:20;;;;;;;10.65;9.65;;;;;;;8.43;68.62;95998.28;5098424;28;20184;-71
2023/01/04 09:53:50;;;;;;;11.20;9.80;;;;;;;8.47;68.70;96004.75;5097604;28;20196;-71
2023/01/04 09:56:21;;;;;;;11.00;10.07;;;;;;;8.50;68.65;96003.31;5098288;28;20184;-71
2023/01/04 09:58:48;;;;;;;10.95;9.95;;;;;;;8.49;68.79;95997.00;5097992;28;20219;-71
2023/01/04 10:01:18;;;;;;;10.05;9.23;;;;;;;8.53;68.61;95999.91;5097090;28;20267;-71
2023/01/04 10:03:50;;;;;;;10.27;9.25;;;;;;;8.57;68.22;95999.00;5098180;28;20200;-71
2023/01/04 10:06:17;;;;;;;11.32;10.07;;;;;;;8.61;68.72;95996.41;5098044;28;20185;-71
2023/01/04 10:08:43;;;;;;;11.27;10.18;;;;;;;8.62;68.43;95998.84;5097457;28;20203;-71
2023/01/04 10:11:19;;;;;;;10.70;9.70;;;;;;;8.66;68.31;96002.56;5097129;28;20204;-71
2023/01/04 10:14:00;;;;;;;10.35;9.45;;;;;;;8.65;68.25;96000.16;5097972;28;20218;-71
2023/01/04 10:16:40;;;;;;;10.95;9.93;;;;;;;8.63;68.49;96002.38;5097208;28;20220;-71
2023/01/04 10:19:17;;;;;;;10.15;9.15;;;;;;;8.64;68.28;96009.50;5097046;28;20192;-71
2023/01/04 10:21:49;;;;;;;10.05;9.15;;;;;;;8.61;68.45;95996.41;5096863;28;20265;-72
2023/01/04 10:24:29;;;;;;;10.50;9.48;;;;;;;8.62;68.45;95993.34;5097937;28;20249;-71
2023/01/04 10:27:00;;;;;;;11.65;10.65;;;;;;;8.64;68.44;95996.59;5097588;28;20222;-71
2023/01/04 10:29:43;;;;;;;10.73;9.70;;;;;;;8.62;68.42;95995.28;5096599;28;20601;-71
2023/01/04 10:32:16;;;;;;;10.60;9.60;;;;;;;8.65;68.54;95997.41;5097747;28;20252;-71
2023/01/04 10:34:46;;;;;;;11.20;10.10;;;;;;;8.69;68.45;95995.63;5096834;28;20300;-71
2023/01/04 10:37:15;;;;;;;10.93;10.02;;;;;;;8.70;68.36;95997.25;5096290;28;20185;-71
2023/01/04 10:39:43;;;;;;;10.70;9.65;;;;;;;8.63;68.58;95997.69;5096970;28;20192;-71
2023/01/04 10:42:16;;;;;;;12.25;10.93;;;;;;;8.61;68.72;95997.22;5096380;28;20228;-71
2023/01/04 10:44:54;;;;;;;12.02;10.82;;;;;;;8.59;68.75;95990.41;5097422;28;20207;-71
2023/01/04 10:47:26;;;;;;;10.48;9.48;;;;;;;8.59;68.82;95998.66;5096914;28;20243;-71
2023/01/04 10:49:56;;;;;;;10.50;9.50;;;;;;;8.52;69.19;96004.59;5096620;28;20196;-71
2023/01/04 10:52:27;;;;;;;11.30;10.25;;;;;;;8.52;69.24;96004.59;5096355;28;20189;-71
2023/01/04 10:54:58;;;;;;;9.95;9.05;;;;;;;8.52;69.18;95990.88;5097134;28;20189;-71
2023/01/04 10:57:28;;;;;;;11.10;10.02;;;;;;;8.56;69.60;95988.28;5096789;28;20184;-71
2023/01/04 10:59:58;;;;;;;10.85;9.95;;;;;;;8.56;69.46;95989.09;5096467;28;20196;-71
2023/01/04 11:02:28;;;;;;;10.93;9.98;;;;;;;8.56;69.32;95980.03;5096101;28;20200;-71
2023/01/04 11:05:00;;;;;;;10.20;9.20;;;;;;;8.59;69.11;95980.22;5096256;28;20189;-71
2023/01/04 11:07:31;;;;;;;9.90;9.00;;;;;;;8.60;69.01;95992.81;5096586;28;20205;-70
2023/01/04 11:10:02;;;;;;;10.40;9.40;;;;;;;8.61;69.13;95985.41;5096127;28;20250;-71
2023/01/04 11:12:30;;;;;;;9.68;8.88;;;;;;;8.62;69.05;95987.03;5096836;28;20185;-71
2023/01/04 11:14:56;;;;;;;9.98;9.07;;;;;;;8.57;69.22;95982.50;5096894;28;20245;-70
2023/01/04 11:17:24;;;;;;;10.38;9.40;;;;;;;8.58;68.83;95977.78;5096172;28;20196;-70
2023/01/04 11:19:51;;;;;;;10.30;9.25;;;;;;;8.57;69.05;95976.16;5095745;28;20189;-70
2023/01/04 11:22:22;;;;;;;10.10;9.10;;;;;;;8.59;69.19;95969.22;5096743;28;20193;-70
2023/01/04 11:24:52;;;;;;;10.15;9.15;;;;;;;8.61;69.05;95969.72;5095804;28;20204;-70
2023/01/04 11:27:22;;;;;;;10.18;9.18;;;;;;;8.64;68.75;95966.34;5097075;28;20222;-70
2023/01/04 11:29:52;;;;;;;9.43;8.50;;;;;;;8.64;68.85;95960.00;5096872;28;20195;-70
2023/01/04 11:32:24;;;;;;;10.23;9.32;;;;;;;8.63;68.64;95952.88;5095711;28;20199;-70
2023/01/04 11:34:52;;;;;;;10.52;9.43;;;;;;;8.67;68.75;95960.19;5096215;28;20255;-70
2023/01/04 11:37:32;;;;;;;10.45;9.38;;;;;;;8.72;68.63;95950.19;5095997;28;20192;-70
2023/01/04 11:40:18;;;;;;;10.82;9.80;;;;;;;8.75;68.67;95947.59;5096674;28;20176;-71
2023/01/04 11:42:46;;;;;;;10.27;9.38;;;;;;;8.79;68.31;95948.59;5095445;28;20199;-71
2023/01/04 11:45:18;;;;;;;10.20;9.20;;;;;;;8.78;68.31;95948.88;5095419;28;20213;-70
2023/01/04 11:47:50;;;;;;;9.43;8.63;;;;;;;8.81;68.32;95940.00;5095182;28;20201;-70
2023/01/04 11:50:41;;;;;;;10.32;9.38;;;;;;;8.77;68.23;95937.06;5095314;28;20192;-71
2023/01/04 11:53:32;;;;;;;10.43;9.50;;;;;;;8.78;68.23;95935.13;5096148;28;20188;-71
2023/01/04 11:56:15;;;;;;;9.30;8.50;;;;;;;8.78;68.14;95926.88;5095367;28;20530;-71
2023/01/04 11:58:43;;;;;;;9.05;8.25;;;;;;;8.75;68.13;95941.28;5094758;28;20202;-71
2023/01/04 12:01:20;;;;;;;8.90;8.18;;;;;;;8.75;68.48;95933.00;5096187;28;20200;-71
2023/01/04 12:03:47;;;;;;;9.77;8.80;;;;;;;8.77;68.06;95933.53;5094740;28;20192;-71
2023/01/04 12:06:18;;;;;;;9.95;9.05;;;;;;;8.76;68.40;95921.72;5095268;28;20200;-71
2023/01/04 12:08:46;;;;;;;12.32;10.20;;;;;;;8.86;68.22;95928.81;5095421;28;20706;-71
2023/01/04 12:11:19;;;;;;;11.27;10.07;;;;;;;8.89;68.23;95928.19;5094907;28;20325;-71
2023/01/04 12:13:46;;;;;;;12.35;11.07;;;;;;;8.95;68.09;95924.16;5094836;28;20257;-71
2023/01/04 12:16:20;;;;;;;15.25;12.38;;;;;;;9.03;68.27;95928.06;5095019;28;20197;-71
2023/01/04 12:18:47;;;;;;;13.77;11.75;;;;;;;9.18;67.92;95929.53;5094794;28;20200;-71
2023/01/04 12:21:17;;;;;;;11.82;10.70;;;;;;;9.39;67.16;95928.56;5095303;28;20184;-71
2023/01/04 12:23:46;;;;;;;10.40;9.50;;;;;;;9.57;66.84;95918.34;5094687;28;20203;-71
2023/01/04 12:26:13;;;;;;;10.32;9.43;;;;;;;9.70;65.91;95919.31;5094721;28;20189;-71
2023/01/04 12:28:43;;;;;;;9.75;8.75;;;;;;;9.76;65.96;95922.69;5094312;28;20219;-71